Time;durP1;ratioP1;P1;durP2;ratioP2;P2;SDS_P1;SDS_P2;PMS_P1;PMS_P2;Temp;Humidity;BMP_temperature;BMP_pressure;BME280_temperature;BME280_humidity;BME280_pressure;Samples;Min_cycle;Max_cycle;Signal;HPM_P1;HPM_P2
2022/06/27 00:00:03;;;;;;;10.55;6.78;;;17.60;99.90;;;;;;5095881;27;20035;-61
2022/06/27 00:02:39;;;;;;;8.73;6.15;;;17.50;99.90;;;;;;5108637;27;20630;-62
2022/06/27 00:05:05;;;;;;;7.40;6.70;;;17.50;99.90;;;;;;5109754;27;20043;-60
2022/06/27 00:07:31;;;;;;;9.05;7.40;;;17.50;99.90;;;;;;5112404;27;20770;-58
2022/06/27 00:09:57;;;;;;;8.27;7.47;;;17.50;99.90;;;;;;5101224;28;20697;-58
2022/06/27 00:12:24;;;;;;;9.77;7.90;;;17.50;99.90;;;;;;5112243;27;20135;-58
2022/06/27 00:14:50;;;;;;;9.35;7.75;;;17.50;99.90;;;;;;5110134;27;20088;-58
2022/06/27 00:17:16;;;;;;;8.68;7.53;;;17.50;99.90;;;;;;5127862;27;20530;-58
2022/06/27 00:19:43;;;;;;;9.80;8.75;;;17.40;99.90;;;;;;5137365;27;20127;-58
2022/06/27 00:22:09;;;;;;;10.02;8.88;;;17.40;99.90;;;;;;5111316;27;20054;-58
2022/06/27 00:24:36;;;;;;;9.20;8.30;;;17.40;99.90;;;;;;5111332;27;20052;-58
2022/06/27 00:27:03;;;;;;;9.25;7.88;;;17.40;99.90;;;;;;5149659;27;20133;-58
2022/06/27 00:29:29;;;;;;;8.82;7.95;;;17.40;99.90;;;;;;5113197;27;20076;-58
2022/06/27 00:31:55;;;;;;;9.65;8.75;;;17.40;99.90;;;;;;5101076;28;20051;-59
2022/06/27 00:34:21;;;;;;;11.07;10.05;;;17.30;99.90;;;;;;5109331;27;20345;-59
2022/06/27 00:36:48;;;;;;;11.85;10.60;;;17.40;99.90;;;;;;5124423;27;20058;-63
2022/06/27 00:39:14;;;;;;;9.13;8.23;;;17.40;99.90;;;;;;5110515;27;20046;-63
2022/06/27 00:41:40;;;;;;;9.95;8.80;;;17.40;99.90;;;;;;5102730;27;20055;-63
2022/06/27 00:44:06;;;;;;;10.85;8.82;;;17.30;99.90;;;;;;5110353;27;20556;-63
2022/06/27 00:46:32;;;;;;;10.95;9.95;;;17.20;99.90;;;;;;5106396;27;20408;-63
2022/06/27 00:48:58;;;;;;;11.43;9.73;;;17.20;99.90;;;;;;5113778;27;20043;-63
2022/06/27 00:51:25;;;;;;;10.25;9.15;;;17.10;99.90;;;;;;5112571;27;20047;-64
2022/06/27 00:53:55;;;;;;;9.80;8.30;;;17.10;99.90;;;;;;5090456;27;20500;-63
2022/06/27 00:56:22;;;;;;;11.43;8.98;;;17.00;99.90;;;;;;5097956;27;20349;-63
2022/06/27 00:58:48;;;;;;;9.70;8.68;;;17.10;99.90;;;;;;5112041;27;20525;-64
2022/06/27 01:01:14;;;;;;;11.35;7.75;;;17.00;99.90;;;;;;5101747;27;20054;-65
2022/06/27 01:03:40;;;;;;;10.35;8.75;;;17.10;99.90;;;;;;5105992;27;20574;-64
2022/06/27 01:06:07;;;;;;;10.10;9.20;;;17.10;99.90;;;;;;5124729;27;20051;-63
2022/06/27 01:08:33;;;;;;;10.70;8.38;;;17.10;99.90;;;;;;5111565;27;20057;-64
2022/06/27 01:10:59;;;;;;;8.88;7.90;;;17.10;99.90;;;;;;5117677;27;20578;-64
2022/06/27 01:13:25;;;;;;;10.95;8.75;;;17.10;99.90;;;;;;5113719;27;20054;-63
2022/06/27 01:15:52;;;;;;;11.18;9.60;;;17.10;99.90;;;;;;5144110;27;20047;-64
2022/06/27 01:18:19;;;;;;;12.18;9.98;;;17.10;99.90;;;;;;5092028;27;20043;-64
2022/06/27 01:20:48;;;;;;;10.07;9.18;;;17.00;99.90;;;;;;5115818;27;20233;-64
2022/06/27 01:23:14;;;;;;;10.88;9.20;;;17.10;99.90;;;;;;5124743;27;20044;-59
2022/06/27 01:25:41;;;;;;;9.77;8.65;;;17.00;99.90;;;;;;5101414;28;20055;-58
2022/06/27 01:28:10;;;;;;;9.93;8.93;;;17.00;99.90;;;;;;5113135;27;20054;-64
2022/06/27 01:30:37;;;;;;;12.18;9.18;;;17.00;99.90;;;;;;5109760;27;20085;-64
2022/06/27 01:33:03;;;;;;;13.52;10.18;;;16.90;99.90;;;;;;5069537;27;20046;-63
2022/06/27 01:35:29;;;;;;;10.77;9.50;;;17.00;99.90;;;;;;5101533;27;20043;-64
2022/06/27 01:37:55;;;;;;;11.02;9.68;;;16.90;99.90;;;;;;5118095;27;20180;-64
2022/06/27 01:40:22;;;;;;;12.25;8.48;;;16.90;99.90;;;;;;5104967;27;20456;-64
2022/06/27 01:42:51;;;;;;;10.35;8.85;;;16.90;99.90;;;;;;5084024;27;20050;-63
2022/06/27 01:45:17;;;;;;;10.45;9.30;;;16.90;99.90;;;;;;5100631;27;20143;-63
2022/06/27 01:47:44;;;;;;;11.13;9.32;;;16.90;99.90;;;;;;5106113;27;20056;-64
2022/06/27 01:50:13;;;;;;;10.07;8.98;;;17.00;99.90;;;;;;5082982;27;20047;-64
2022/06/27 01:52:49;;;;;;;10.48;9.43;;;17.00;99.90;;;;;;5128490;27;20051;-64
2022/06/27 01:55:20;;;;;;;11.90;9.73;;;16.90;99.90;;;;;;5102516;27;20126;-64
2022/06/27 01:57:47;;;;;;;12.70;9.38;;;16.90;99.90;;;;;;5082745;28;20081;-64
2022/06/27 02:00:14;;;;;;;10.68;9.68;;;16.90;99.90;;;;;;5055351;28;20576;-64
2022/06/27 02:02:59;;;;;;;10.23;8.90;;;16.90;99.90;;;;;;5111060;27;20939;-59
2022/06/27 02:05:31;;;;;;;10.18;9.20;;;16.90;99.90;;;;;;5115098;27;20054;-59
2022/06/27 02:07:58;;;;;;;10.38;9.25;;;16.80;99.90;;;;;;5123515;27;20054;-59
2022/06/27 02:10:24;;;;;;;9.20;7.97;;;16.80;99.90;;;;;;5117807;27;20047;-59
2022/06/27 02:12:51;;;;;;;10.25;7.95;;;16.80;99.90;;;;;;5081351;27;20047;-63
2022/06/27 02:15:17;;;;;;;10.15;8.93;;;16.80;99.90;;;;;;5116818;27;20047;-64
2022/06/27 02:17:43;;;;;;;9.57;8.60;;;16.90;99.90;;;;;;5076129;28;20040;-63
2022/06/27 02:20:13;;;;;;;9.63;8.73;;;16.90;99.90;;;;;;5128013;27;20504;-59
2022/06/27 02:22:40;;;;;;;11.68;9.15;;;16.90;99.90;;;;;;5124067;27;20058;-60
2022/06/27 02:25:06;;;;;;;10.30;8.80;;;16.90;99.90;;;;;;5114363;27;20133;-59
2022/06/27 02:27:34;;;;;;;11.32;9.20;;;16.90;99.90;;;;;;5116458;28;20047;-59
2022/06/27 02:30:01;;;;;;;9.98;8.98;;;16.90;99.90;;;;;;5107009;27;20513;-59
2022/06/27 02:32:28;;;;;;;10.80;9.82;;;16.80;99.90;;;;;;5120524;27;20039;-59
2022/06/27 02:34:57;;;;;;;11.30;10.13;;;16.80;99.90;;;;;;5111683;28;20108;-59
2022/06/27 02:37:27;;;;;;;12.10;10.85;;;16.80;99.90;;;;;;5117769;27;20047;-59
2022/06/27 02:39:55;;;;;;;13.60;12.40;;;16.80;99.90;;;;;;5109406;27;20501;-59
2022/06/27 02:42:26;;;;;;;13.38;11.98;;;16.80;99.90;;;;;;5107277;28;20039;-59
2022/06/27 02:44:53;;;;;;;14.82;13.43;;;16.80;99.90;;;;;;5114629;27;20043;-63
2022/06/27 02:47:21;;;;;;;15.63;14.13;;;16.70;99.90;;;;;;5101374;28;20056;-64
2022/06/27 02:49:48;;;;;;;16.88;15.27;;;16.80;99.90;;;;;;5113229;27;20068;-63
2022/06/27 02:52:36;;;;;;;17.48;15.77;;;16.70;99.90;;;;;;5109321;28;20350;-64
2022/06/27 02:55:11;;;;;;;18.10;16.20;;;16.80;99.90;;;;;;5110207;27;20051;-64
2022/06/27 02:57:50;;;;;;;15.45;14.02;;;16.80;99.90;;;;;;5078226;27;20039;-64
2022/06/27 03:00:17;;;;;;;16.45;14.65;;;16.70;99.90;;;;;;5129307;27;20039;-64
2022/06/27 03:02:44;;;;;;;18.40;16.50;;;16.80;99.90;;;;;;5128378;27;20043;-63
2022/06/27 03:05:10;;;;;;;19.75;17.85;;;16.80;99.90;;;;;;5118801;27;20051;-64
2022/06/27 03:07:41;;;;;;;18.38;16.45;;;16.80;99.90;;;;;;5106796;27;20056;-60
2022/06/27 03:10:09;;;;;;;19.35;16.80;;;16.80;99.90;;;;;;5125068;27;20354;-59
2022/06/27 03:12:38;;;;;;;18.92;17.02;;;16.70;99.90;;;;;;5115102;27;20158;-64
2022/06/27 03:15:05;;;;;;;18.33;16.73;;;16.70;99.90;;;;;;5115105;27;20054;-64
2022/06/27 03:17:31;;;;;;;18.92;17.13;;;16.70;99.90;;;;;;5139273;27;20075;-63
2022/06/27 03:20:17;;;;;;;18.00;16.25;;;16.70;99.90;;;;;;5118584;27;20035;-65
2022/06/27 03:23:03;;;;;;;18.70;16.85;;;16.70;99.90;;;;;;5076504;27;20035;-64
2022/06/27 03:25:36;;;;;;;18.58;16.70;;;16.70;99.90;;;;;;5114161;27;20541;-63
2022/06/27 03:28:02;;;;;;;19.40;17.38;;;16.70;99.90;;;;;;5089808;27;21018;-63
2022/06/27 03:30:29;;;;;;;21.73;19.63;;;16.70;99.90;;;;;;5123975;27;20264;-58
2022/06/27 03:32:55;;;;;;;20.92;18.73;;;16.70;99.90;;;;;;5108532;27;20043;-59
2022/06/27 03:35:26;;;;;;;20.23;18.42;;;16.70;99.90;;;;;;5109708;27;20145;-59
2022/06/27 03:37:55;;;;;;;22.35;20.35;;;16.70;99.90;;;;;;5098673;27;20047;-63
2022/06/27 03:40:24;;;;;;;22.90;20.83;;;16.70;99.90;;;;;;5098619;27;20047;-59
2022/06/27 03:42:51;;;;;;;21.08;19.20;;;16.70;99.90;;;;;;5114060;27;20051;-59
2022/06/27 03:45:18;;;;;;;22.55;20.55;;;16.70;99.90;;;;;;5119596;27;20042;-63
2022/06/27 03:47:56;;;;;;;21.55;19.60;;;16.70;99.90;;;;;;5094676;27;20046;-63
2022/06/27 03:50:32;;;;;;;21.65;19.75;;;16.70;99.90;;;;;;5111659;27;20100;-59
2022/06/27 03:52:58;;;;;;;21.08;19.13;;;16.70;99.90;;;;;;5087925;27;20051;-60
2022/06/27 03:55:25;;;;;;;20.65;18.60;;;16.70;99.90;;;;;;5150189;27;20040;-59
2022/06/27 03:57:57;;;;;;;19.13;17.20;;;16.70;99.90;;;;;;5099719;27;20365;-59
2022/06/27 04:00:31;;;;;;;17.58;15.98;;;16.70;99.90;;;;;;5125159;27;20132;-59
2022/06/27 04:02:59;;;;;;;16.95;14.65;;;16.60;99.90;;;;;;5095475;27;20079;-59
2022/06/27 04:05:37;;;;;;;17.25;15.43;;;16.50;99.90;;;;;;5128324;27;20056;-60
2022/06/27 04:08:04;;;;;;;14.85;13.13;;;16.40;99.90;;;;;;5114478;27;20048;-59
2022/06/27 04:10:34;;;;;;;13.00;11.05;;;16.40;99.90;;;;;;5096511;27;20952;-58
2022/06/27 04:13:00;;;;;;;12.45;11.15;;;16.20;99.90;;;;;;5120919;27;20502;-59
2022/06/27 04:15:52;;;;;;;11.05;9.95;;;16.20;99.90;;;;;;5083081;27;20505;-58
2022/06/27 04:18:32;;;;;;;11.38;10.15;;;16.10;99.90;;;;;;5113241;27;20044;-58
2022/06/27 04:21:32;;;;;;;11.80;10.60;;;16.00;99.90;;;;;;5121244;27;20047;-58
2022/06/27 04:24:08;;;;;;;12.23;10.88;;;15.90;99.90;;;;;;5155526;27;20510;-58
2022/06/27 04:26:44;;;;;;;12.82;11.40;;;16.00;99.90;;;;;;5141261;27;20125;-58
2022/06/27 04:29:11;;;;;;;13.45;10.80;;;16.00;99.90;;;;;;5116183;27;20048;-58
2022/06/27 04:31:37;;;;;;;13.23;11.85;;;15.90;99.90;;;;;;5135821;27;20050;-58
2022/06/27 04:34:04;;;;;;;13.20;11.90;;;16.00;99.90;;;;;;5094305;27;20039;-58
2022/06/27 04:36:36;;;;;;;14.70;13.40;;;16.00;99.90;;;;;;5110721;27;20058;-58
2022/06/27 04:39:03;;;;;;;13.32;12.15;;;16.00;99.90;;;;;;5099520;27;20035;-59
2022/06/27 04:41:49;;;;;;;12.38;11.07;;;16.00;99.90;;;;;;5096038;27;20047;-62
2022/06/27 04:44:15;;;;;;;13.75;11.80;;;16.00;99.90;;;;;;5110312;27;20383;-62
2022/06/27 04:46:42;;;;;;;13.13;11.93;;;16.00;99.90;;;;;;5120059;27;20051;-62
2022/06/27 04:49:21;;;;;;;12.95;11.75;;;16.00;99.90;;;;;;5107015;27;20043;-60
2022/06/27 04:51:49;;;;;;;14.45;12.95;;;16.00;99.90;;;;;;5092239;27;20939;-62
2022/06/27 04:54:18;;;;;;;13.77;12.38;;;16.10;99.90;;;;;;5106733;27;20181;-62
2022/06/27 04:56:45;;;;;;;13.80;12.50;;;16.00;99.90;;;;;;5097603;27;20432;-64
2022/06/27 04:59:12;;;;;;;15.18;13.75;;;16.10;99.90;;;;;;5116615;27;20046;-62
2022/06/27 05:01:42;;;;;;;14.65;13.25;;;16.10;99.90;;;;;;5137099;27;20039;-58
2022/06/27 05:04:12;;;;;;;15.00;13.43;;;16.10;99.90;;;;;;5132992;27;20405;-58
2022/06/27 05:06:42;;;;;;;11.90;10.80;;;16.20;99.90;;;;;;5116711;27;20053;-58
2022/06/27 05:09:09;;;;;;;11.10;9.98;;;16.20;99.90;;;;;;5121519;27;20137;-58
2022/06/27 05:11:35;;;;;;;9.32;7.68;;;16.20;99.90;;;;;;5079546;27;20051;-58
2022/06/27 05:14:02;;;;;;;8.38;7.57;;;16.20;99.90;;;;;;5118715;27;20141;-58
2022/06/27 05:16:37;;;;;;;7.55;6.85;;;16.20;99.90;;;;;;5101373;27;20059;-58
2022/06/27 05:19:04;;;;;;;6.82;6.22;;;16.20;99.90;;;;;;5113102;27;20118;-58
2022/06/27 05:21:30;;;;;;;8.52;6.43;;;16.30;99.90;;;;;;5098853;27;20526;-58
2022/06/27 05:23:56;;;;;;;7.57;6.40;;;16.20;99.90;;;;;;5123471;27;20050;-59
2022/06/27 05:26:22;;;;;;;9.73;8.50;;;16.20;99.90;;;;;;5122948;27;20047;-59
2022/06/27 05:28:49;;;;;;;8.98;8.07;;;16.30;99.90;;;;;;5111329;27;20062;-59
2022/06/27 05:31:16;;;;;;;7.70;6.95;;;16.30;99.90;;;;;;5120875;27;20045;-58
2022/06/27 05:33:42;;;;;;;7.82;7.10;;;16.40;99.90;;;;;;5109022;27;20126;-59
2022/06/27 05:36:10;;;;;;;7.47;6.78;;;16.50;99.90;;;;;;5118402;27;20447;-58
2022/06/27 05:38:37;;;;;;;9.38;7.35;;;16.50;99.90;;;;;;5124975;27;20404;-58
2022/06/27 05:41:03;;;;;;;8.30;7.28;;;16.60;99.90;;;;;;5107101;27;20118;-62
2022/06/27 05:43:30;;;;;;;7.22;6.53;;;16.70;99.90;;;;;;5106513;27;20130;-60
2022/06/27 05:45:57;;;;;;;7.38;6.68;;;17.00;99.90;;;;;;5090853;28;20475;-60
2022/06/27 05:48:41;;;;;;;7.43;6.25;;;17.10;99.90;;;;;;5109488;27;20573;-61
2022/06/27 05:51:20;;;;;;;6.00;5.50;;;17.30;99.90;;;;;;5142715;27;20056;-61
2022/06/27 05:53:50;;;;;;;6.90;6.20;;;17.40;99.90;;;;;;5117826;27;20485;-61
2022/06/27 05:56:16;;;;;;;6.30;5.65;;;17.40;99.90;;;;;;5111711;27;20039;-60
2022/06/27 05:58:43;;;;;;;5.07;4.57;;;17.40;99.90;;;;;;5115317;27;20453;-60
2022/06/27 06:01:13;;;;;;;5.95;4.13;;;17.40;99.90;;;;;;5121913;27;20043;-61
2022/06/27 06:03:39;;;;;;;6.25;5.05;;;17.30;99.90;;;;;;5117710;27;20409;-62
2022/06/27 06:06:06;;;;;;;73.45;66.43;;;17.30;99.90;;;;;;5101184;27;20046;-61
2022/06/27 06:08:36;;;;;;;51.03;46.05;;;17.30;99.90;;;;;;5111899;27;20046;-61
2022/06/27 06:11:03;;;;;;;6.07;5.05;;;17.30;99.90;;;;;;5097751;27;20051;-62
2022/06/27 06:13:29;;;;;;;6.28;4.72;;;17.30;99.90;;;;;;5109419;27;20192;-62
2022/06/27 06:15:58;;;;;;;12.40;11.13;;;17.30;99.90;;;;;;5107581;27;20047;-61
2022/06/27 06:18:27;;;;;;;16.48;14.77;;;17.30;99.90;;;;;;5081924;27;20062;-62
2022/06/27 06:20:53;;;;;;;5.78;4.80;;;17.20;99.90;;;;;;5115227;27;20493;-62
2022/06/27 06:23:19;;;;;;;6.78;4.95;;;17.20;99.90;;;;;;5117458;27;20039;-61
2022/06/27 06:25:46;;;;;;;9.70;8.73;;;17.10;99.90;;;;;;5083464;27;20082;-61
2022/06/27 06:28:12;;;;;;;45.53;41.05;;;17.20;99.90;;;;;;5110715;27;20076;-59
2022/06/27 06:30:38;;;;;;;15.70;14.10;;;17.30;99.90;;;;;;5101913;27;20046;-59
2022/06/27 06:33:08;;;;;;;9.05;6.90;;;17.30;99.90;;;;;;5115137;27;20085;-59
2022/06/27 06:35:36;;;;;;;6.80;6.10;;;17.30;99.90;;;;;;5084296;27;20051;-59
2022/06/27 06:38:04;;;;;;;7.63;6.88;;;17.30;99.90;;;;;;5099434;27;20082;-59
2022/06/27 06:40:31;;;;;;;6.47;4.95;;;17.30;99.90;;;;;;5115824;27;20054;-62
2022/06/27 06:43:00;;;;;;;42.28;37.95;;;17.30;99.90;;;;;;5099834;27;20043;-62
2022/06/27 06:45:50;;;;;;;46.58;41.53;;;17.40;99.90;;;;;;5113607;27;20066;-62
2022/06/27 06:48:25;;;;;;;8.00;7.20;;;17.40;99.90;;;;;;5116403;27;20521;-61
2022/06/27 06:50:54;;;;;;;6.05;5.45;;;17.50;99.90;;;;;;5103070;27;20078;-61
2022/06/27 06:53:21;;;;;;;6.45;5.20;;;17.40;99.90;;;;;;5118801;27;20158;-60
2022/06/27 06:55:48;;;;;;;6.30;5.47;;;17.40;99.90;;;;;;5121286;27;20039;-60
2022/06/27 06:58:14;;;;;;;9.25;8.35;;;17.40;99.90;;;;;;5126352;27;20103;-60
2022/06/27 07:00:40;;;;;;;5.95;5.35;;;17.30;99.90;;;;;;5118318;27;20058;-62
2022/06/27 07:03:07;;;;;;;8.40;6.55;;;17.30;99.90;;;;;;5122075;27;20043;-62
2022/06/27 07:05:35;;;;;;;6.38;5.40;;;17.30;99.90;;;;;;5120958;27;20104;-60
2022/06/27 07:08:03;;;;;;;7.05;5.50;;;17.30;99.90;;;;;;5145541;27;20055;-60
2022/06/27 07:10:29;;;;;;;6.55;5.85;;;17.30;99.90;;;;;;5114794;27;20141;-61
2022/06/27 07:12:55;;;;;;;9.88;8.93;;;17.20;99.90;;;;;;5125152;27;20088;-58
2022/06/27 07:15:21;;;;;;;63.75;57.50;;;17.30;99.90;;;;;;5117861;27;20050;-61
2022/06/27 07:17:52;;;;;;;12.77;11.55;;;17.20;99.90;;;;;;5121953;27;20562;-61
2022/06/27 07:20:21;;;;;;;8.63;7.20;;;17.20;99.90;;;;;;5114951;27;20044;-62
2022/06/27 07:22:49;;;;;;;9.85;8.85;;;17.20;99.90;;;;;;5093475;27;20035;-60
2022/06/27 07:25:15;;;;;;;6.30;5.70;;;17.20;99.90;;;;;;5113557;27;20046;-60
2022/06/27 07:27:43;;;;;;;7.68;6.00;;;17.10;99.90;;;;;;5118745;27;20111;-60
2022/06/27 07:30:12;;;;;;;9.45;8.13;;;17.30;99.90;;;;;;5099190;27;20416;-59
2022/06/27 07:32:40;;;;;;;6.60;5.93;;;17.20;99.90;;;;;;5113069;27;20042;-69
2022/06/27 07:35:09;;;;;;;6.63;5.75;;;17.20;99.90;;;;;;5145043;27;20039;-63
2022/06/27 07:37:39;;;;;;;7.07;5.95;;;17.30;99.90;;;;;;5112614;27;20097;-61
2022/06/27 07:40:07;;;;;;;6.85;5.90;;;17.30;99.90;;;;;;5115098;27;20042;-58
2022/06/27 07:42:35;;;;;;;7.25;6.55;;;17.30;99.90;;;;;;5121668;27;20043;-61
2022/06/27 07:45:01;;;;;;;6.65;5.97;;;17.30;99.90;;;;;;5112306;27;20043;-62
2022/06/27 07:47:27;;;;;;;7.20;6.25;;;17.40;99.90;;;;;;5119493;27;20099;-61
2022/06/27 07:49:53;;;;;;;6.68;5.90;;;17.40;99.90;;;;;;5111559;27;20074;-61
2022/06/27 07:52:19;;;;;;;7.03;6.25;;;17.40;99.90;;;;;;5109376;27;20070;-61
2022/06/27 07:54:48;;;;;;;6.85;5.72;;;17.40;99.90;;;;;;5114710;27;20077;-61
2022/06/27 07:57:14;;;;;;;6.60;5.85;;;17.50;99.90;;;;;;5097349;27;20122;-61
2022/06/27 07:59:41;;;;;;;7.40;6.70;;;17.70;99.90;;;;;;5094009;27;20124;-61
2022/06/27 08:02:09;;;;;;;6.72;5.65;;;17.90;99.90;;;;;;5116989;27;20046;-61
2022/06/27 08:04:37;;;;;;;5.10;4.60;;;18.00;99.90;;;;;;5106255;27;20575;-61
2022/06/27 08:07:04;;;;;;;5.72;4.88;;;18.10;99.90;;;;;;5098320;27;20045;-59
2022/06/27 08:09:30;;;;;;;19.10;17.08;;;18.10;99.90;;;;;;5118494;27;20584;-60
2022/06/27 08:11:56;;;;;;;12.48;11.18;;;18.30;99.90;;;;;;5115162;27;20039;-61
2022/06/27 08:14:22;;;;;;;10.43;9.32;;;18.40;99.90;;;;;;5092076;27;20498;-62
2022/06/27 08:16:51;;;;;;;8.38;7.53;;;18.50;99.90;;;;;;5115789;27;20497;-61
2022/06/27 08:19:19;;;;;;;12.18;10.77;;;18.70;99.90;;;;;;5110327;27;20099;-61
2022/06/27 08:21:47;;;;;;;8.75;7.88;;;18.80;99.90;;;;;;5117222;27;20562;-61
2022/06/27 08:24:18;;;;;;;5.40;4.90;;;18.90;99.90;;;;;;5118101;27;20292;-63
2022/06/27 08:26:46;;;;;;;6.63;5.82;;;19.00;99.90;;;;;;5099728;27;20050;-62
2022/06/27 08:29:13;;;;;;;6.18;5.50;;;19.10;99.90;;;;;;5111362;27;20040;-61
2022/06/27 08:31:39;;;;;;;7.35;6.50;;;19.10;99.90;;;;;;5116175;27;20035;-62
2022/06/27 08:34:06;;;;;;;11.02;9.88;;;19.10;99.90;;;;;;5115212;27;20072;-61
2022/06/27 08:36:35;;;;;;;16.55;14.82;;;19.20;99.90;;;;;;5115954;27;20063;-61
2022/06/27 08:39:16;;;;;;;7.97;7.15;;;19.20;99.90;;;;;;5112819;27;20604;-61
2022/06/27 08:41:45;;;;;;;4.95;4.40;;;19.20;99.90;;;;;;5120037;27;20062;-61
2022/06/27 08:44:12;;;;;;;6.45;4.78;;;19.20;99.90;;;;;;5111804;27;21704;-61
2022/06/27 08:46:40;;;;;;;5.18;4.68;;;19.10;99.90;;;;;;5082057;27;20513;-61
2022/06/27 08:49:07;;;;;;;5.78;4.47;;;19.10;99.90;;;;;;5116936;27;20533;-61
2022/06/27 08:51:33;;;;;;;4.97;4.47;;;19.10;99.90;;;;;;5112600;27;20050;-61
2022/06/27 08:54:00;;;;;;;6.70;5.40;;;19.10;99.90;;;;;;5115895;27;20183;-61
2022/06/27 08:56:29;;;;;;;5.00;4.50;;;19.20;99.90;;;;;;5098490;27;20095;-61
2022/06/27 08:58:58;;;;;;;5.72;4.90;;;19.30;99.90;;;;;;5116466;27;20394;-61
2022/06/27 09:01:27;;;;;;;5.57;5.07;;;19.30;99.90;;;;;;5114553;27;20556;-61
2022/06/27 09:04:04;;;;;;;5.28;4.72;;;19.50;99.90;;;;;;5115538;27;20100;-61
2022/06/27 09:06:46;;;;;;;9.40;8.43;;;19.80;99.90;;;;;;5121332;27;20047;-62
2022/06/27 09:09:15;;;;;;;5.75;4.65;;;19.80;99.90;;;;;;5116916;27;20054;-61
2022/06/27 09:11:43;;;;;;;6.43;3.88;;;19.80;99.90;;;;;;5121505;27;20043;-62
2022/06/27 09:14:36;;;;;;;4.47;3.58;;;19.90;99.90;;;;;;5100595;27;20100;-61
2022/06/27 09:17:07;;;;;;;3.85;2.65;;;19.80;99.90;;;;;;5111919;27;20062;-62
2022/06/27 09:19:55;;;;;;;4.55;3.10;;;19.80;99.90;;;;;;5112547;27;20259;-65
2022/06/27 09:22:23;;;;;;;5.47;3.65;;;19.70;99.90;;;;;;5114168;27;20564;-62
2022/06/27 09:25:09;;;;;;;5.00;3.10;;;19.60;99.90;;;;;;5111903;27;20135;-63
2022/06/27 09:27:52;;;;;;;8.32;7.53;;;19.50;99.90;;;;;;5092462;27;20047;-61
2022/06/27 09:30:19;;;;;;;5.40;4.00;;;19.40;99.90;;;;;;5116064;27;20039;-62
2022/06/27 09:32:53;;;;;;;5.75;5.15;;;19.20;99.90;;;;;;5116784;27;20043;-61
2022/06/27 09:35:33;;;;;;;4.18;3.08;;;19.20;99.90;;;;;;5116144;27;20047;-61
2022/06/27 09:38:02;;;;;;;5.10;3.15;;;19.10;99.90;;;;;;5094551;27;20062;-62
2022/06/27 09:40:30;;;;;;;5.03;3.95;;;19.10;99.90;;;;;;5118871;27;20395;-66
2022/06/27 09:42:57;;;;;;;5.22;3.90;;;19.10;99.90;;;;;;5114092;27;20046;-61
2022/06/27 09:45:25;;;;;;;8.52;6.30;;;19.30;99.90;;;;;;5108621;27;20047;-60
2022/06/27 09:47:58;;;;;;;5.90;4.07;;;19.40;99.90;;;;;;5124104;27;20379;-60
2022/06/27 09:50:29;;;;;;;6.35;4.65;;;19.50;99.90;;;;;;5139585;27;20074;-58
2022/06/27 09:52:56;;;;;;;25.20;22.52;;;19.50;99.90;;;;;;5103372;27;20600;-60
2022/06/27 09:55:23;;;;;;;34.15;30.80;;;19.50;99.90;;;;;;5110481;27;20504;-61
2022/06/27 09:57:51;;;;;;;4.50;3.65;;;19.50;99.90;;;;;;5093665;27;20544;-60
2022/06/27 10:00:20;;;;;;;4.25;3.30;;;19.50;99.90;;;;;;5112726;27;20080;-60
2022/06/27 10:02:47;;;;;;;8.45;7.50;;;19.50;99.90;;;;;;5113228;27;20531;-60
2022/06/27 10:05:16;;;;;;;6.97;6.22;;;19.50;99.90;;;;;;5110170;27;21197;-60
2022/06/27 10:08:05;;;;;;;20.83;18.88;;;19.60;99.90;;;;;;5108003;27;20050;-61
2022/06/27 10:11:00;;;;;;;5.88;3.20;;;19.70;99.90;;;;;;5110240;27;20046;-60
2022/06/27 10:13:30;;;;;;;10.90;9.73;;;19.70;99.90;;;;;;5115855;27;20051;-61
2022/06/27 10:16:05;;;;;;;4.10;3.28;;;19.80;99.90;;;;;;5133700;27;20421;-62
2022/06/27 10:19:05;;;;;;;4.00;2.92;;;19.60;99.90;;;;;;5115328;27;21562;-62
2022/06/27 10:21:36;;;;;;;4.15;2.95;;;19.70;99.90;;;;;;5050755;27;20465;-62
2022/06/27 10:24:28;;;;;;;5.35;3.53;;;19.80;99.90;;;;;;5136106;27;20541;-65
2022/06/27 10:27:01;;;;;;;5.65;4.85;;;19.70;99.90;;;;;;5118817;27;20462;-61
2022/06/27 10:29:30;;;;;;;9.27;7.03;;;19.80;99.90;;;;;;5137530;27;20107;-62
2022/06/27 10:31:57;;;;;;;5.40;4.18;;;19.80;99.90;;;;;;5114536;27;20049;-62
2022/06/27 10:34:38;;;;;;;6.45;4.65;;;19.70;99.90;;;;;;5116334;27;20043;-63
2022/06/27 10:37:25;;;;;;;11.98;10.75;;;19.80;99.90;;;;;;5134912;27;20116;-61
2022/06/27 10:40:10;;;;;;;5.90;3.22;;;19.70;99.90;;;;;;5111738;27;20460;-61
2022/06/27 10:42:51;;;;;;;6.68;5.80;;;19.80;99.90;;;;;;5098916;27;20487;-61
2022/06/27 10:45:20;;;;;;;4.10;3.20;;;19.70;99.90;;;;;;5138567;27;20290;-62
2022/06/27 10:47:57;;;;;;;4.13;2.90;;;19.80;99.90;;;;;;5113188;27;20574;-61
2022/06/27 10:50:26;;;;;;;6.78;3.15;;;19.80;99.90;;;;;;5126032;27;20047;-60
2022/06/27 10:53:22;;;;;;;4.20;2.90;;;19.80;99.90;;;;;;5138733;27;20230;-61
2022/06/27 10:55:49;;;;;;;4.70;2.90;;;19.90;99.90;;;;;;5109821;27;20831;-60
2022/06/27 10:58:32;;;;;;;4.80;3.33;;;19.80;99.90;;;;;;5110429;27;20207;-61
2022/06/27 11:01:16;;;;;;;3.95;3.55;;;19.90;99.90;;;;;;5115979;27;20039;-60
2022/06/27 11:03:42;;;;;;;4.30;3.40;;;19.90;99.90;;;;;;5130807;27;20125;-61
2022/06/27 11:06:13;;;;;;;4.28;3.35;;;19.90;99.90;;;;;;5100056;27;20046;-60
2022/06/27 11:08:42;;;;;;;5.65;3.78;;;20.10;99.90;;;;;;5137257;27;20069;-61
2022/06/27 11:11:14;;;;;;;4.10;2.70;;;20.20;99.90;;;;;;5135563;27;20074;-62
2022/06/27 11:13:44;;;;;;;5.32;2.63;;;20.30;99.90;;;;;;5119187;27;20104;-61
2022/06/27 11:16:16;;;;;;;3.40;2.83;;;20.40;99.90;;;;;;5091011;27;20046;-61
2022/06/27 11:18:58;;;;;;;4.80;2.83;;;20.30;99.90;;;;;;5090720;27;20043;-61
2022/06/27 11:21:32;;;;;;;4.20;2.58;;;20.30;99.90;;;;;;5074657;28;20048;-61
2022/06/27 11:24:00;;;;;;;3.33;2.42;;;20.10;99.90;;;;;;5075422;28;20061;-61
2022/06/27 11:26:35;;;;;;;3.28;1.92;;;20.00;99.90;;;;;;5081293;28;20043;-61
2022/06/27 11:32:06;;;;;;;4.55;2.10;;;20.00;99.90;;;;;;5094459;27;20089;-61
2022/06/27 11:34:36;;;;;;;5.18;2.58;;;20.00;99.90;;;;;;5091291;27;20119;-61
2022/06/27 11:37:08;;;;;;;2.95;2.28;;;20.10;99.90;;;;;;5088665;27;20767;-60
2022/06/27 11:39:36;;;;;;;3.85;2.45;;;20.10;99.90;;;;;;5076353;28;20035;-62
2022/06/27 11:42:10;;;;;;;3.85;2.50;;;20.20;99.90;;;;;;5091023;27;20585;-62
2022/06/27 11:44:39;;;;;;;3.35;2.75;;;20.20;99.90;;;;;;5092463;27;20138;-62
2022/06/27 11:47:08;;;;;;;5.43;2.85;;;20.10;99.90;;;;;;5090955;27;20059;-62
2022/06/27 11:49:39;;;;;;;5.50;3.17;;;20.00;99.90;;;;;;5076933;28;20498;-62
2022/06/27 11:52:14;;;;;;;4.45;2.97;;;19.90;99.90;;;;;;5092688;28;20047;-62
2022/06/27 11:54:45;;;;;;;3.85;2.90;;;19.90;99.90;;;;;;5088922;27;20040;-62
2022/06/27 11:57:32;;;;;;;5.38;2.90;;;19.90;99.90;;;;;;5092828;28;20394;-66
2022/06/27 12:00:00;;;;;;;6.43;4.75;;;19.80;99.90;;;;;;5097181;27;20053;-62
2022/06/27 12:02:37;;;;;;;38.70;34.80;;;19.80;99.90;;;;;;5083999;28;20107;-61
2022/06/27 12:05:04;;;;;;;9.35;7.15;;;19.80;99.90;;;;;;5090717;27;20051;-65
2022/06/27 12:07:30;;;;;;;59.65;54.05;;;19.90;99.90;;;;;;5076959;28;20051;-62
2022/06/27 12:09:56;;;;;;;23.10;20.85;;;20.10;99.90;;;;;;5091654;28;20044;-61
2022/06/27 12:12:27;;;;;;;31.05;27.98;;;20.20;99.90;;;;;;5073023;28;20558;-61
2022/06/27 12:14:54;;;;;;;23.33;21.23;;;20.30;99.90;;;;;;5103741;27;20090;-61
2022/06/27 12:17:23;;;;;;;5.93;4.50;;;20.40;99.90;;;;;;5104497;27;20038;-61
2022/06/27 12:20:01;;;;;;;5.28;3.60;;;20.40;99.90;;;;;;5135445;27;20070;-61
2022/06/27 12:22:28;;;;;;;6.68;4.28;;;20.50;99.90;;;;;;5140015;27;20121;-61
2022/06/27 12:24:54;;;;;;;6.38;5.40;;;20.50;99.90;;;;;;5117516;27;20051;-60
2022/06/27 12:27:20;;;;;;;18.20;15.57;;;20.50;99.90;;;;;;5102014;27;20043;-62
2022/06/27 12:29:46;;;;;;;5.55;4.88;;;20.60;99.90;;;;;;5116780;27;20757;-60
2022/06/27 12:32:13;;;;;;;30.35;27.33;;;20.40;99.90;;;;;;5115874;27;20061;-61
2022/06/27 12:34:40;;;;;;;9.68;8.57;;;20.50;99.90;;;;;;5116549;27;20047;-62
2022/06/27 12:37:07;;;;;;;10.25;9.20;;;20.50;99.90;;;;;;5138443;27;20053;-61
2022/06/27 12:39:33;;;;;;;5.93;4.85;;;20.50;99.90;;;;;;5102942;27;20038;-61
2022/06/27 12:42:02;;;;;;;6.57;5.25;;;20.30;99.90;;;;;;5134695;27;20067;-61
2022/06/27 12:44:28;;;;;;;6.38;5.45;;;20.20;99.90;;;;;;5115943;27;20070;-61
2022/06/27 12:46:55;;;;;;;7.53;6.72;;;20.20;99.90;;;;;;5138728;27;20043;-61
2022/06/27 12:49:21;;;;;;;9.35;8.32;;;20.10;99.90;;;;;;5109817;27;20043;-61
2022/06/27 12:51:48;;;;;;;57.50;52.13;;;20.10;99.90;;;;;;5126949;27;20611;-61
2022/06/27 12:54:15;;;;;;;9.23;7.30;;;20.10;99.90;;;;;;5101296;27;20160;-61
2022/06/27 12:56:41;;;;;;;7.03;5.75;;;20.20;99.90;;;;;;5118666;27;20483;-61